sensor_id;sensor_type;location;lat;lon;timestamp;temperature;humidity
55436;DHT22;41307;53.142;6.430;2023-06-19T00:02:16;21.30;99.90
55436;DHT22;41307;53.142;6.430;2023-06-19T00:04:42;21.30;99.90
55436;DHT22;41307;53.142;6.430;2023-06-19T00:07:08;21.30;99.90
55436;DHT22;41307;53.142;6.430;2023-06-19T00:09:34;21.30;99.90
55436;DHT22;41307;53.142;6.430;2023-06-19T00:12:00;21.30;99.90
55436;DHT22;41307;53.142;6.430;2023-06-19T00:14:26;21.30;99.90
55436;DHT22;41307;53.142;6.430;2023-06-19T00:16:52;21.30;99.90
55436;DHT22;41307;53.142;6.430;2023-06-19T00:19:18;21.30;99.90
55436;DHT22;41307;53.142;6.430;2023-06-19T00:21:44;21.30;99.90
55436;DHT22;41307;53.142;6.430;2023-06-19T00:24:10;21.30;99.90
55436;DHT22;41307;53.142;6.430;2023-06-19T00:26:36;21.30;99.90
55436;DHT22;41307;53.142;6.430;2023-06-19T00:29:02;21.30;99.90
55436;DHT22;41307;53.142;6.430;2023-06-19T00:31:28;21.30;99.90
55436;DHT22;41307;53.142;6.430;2023-06-19T00:33:54;21.20;99.90
55436;DHT22;41307;53.142;6.430;2023-06-19T00:36:19;21.20;99.90
55436;DHT22;41307;53.142;6.430;2023-06-19T00:38:47;21.20;99.90
55436;DHT22;41307;53.142;6.430;2023-06-19T00:41:15;21.20;99.90
55436;DHT22;41307;53.142;6.430;2023-06-19T00:43:40;21.20;99.90
55436;DHT22;41307;53.142;6.430;2023-06-19T00:46:06;21.20;99.90
55436;DHT22;41307;53.142;6.430;2023-06-19T00:48:33;21.20;99.90
55436;DHT22;41307;53.142;6.430;2023-06-19T00:50:59;21.20;99.90
55436;DHT22;41307;53.142;6.430;2023-06-19T00:53:25;21.20;99.90
55436;DHT22;41307;53.142;6.430;2023-06-19T00:55:53;21.20;99.90
55436;DHT22;41307;53.142;6.430;2023-06-19T00:58:23;21.10;99.90
55436;DHT22;41307;53.142;6.430;2023-06-19T01:00:50;21.10;99.90
55436;DHT22;41307;53.142;6.430;2023-06-19T01:03:16;21.10;99.90
55436;DHT22;41307;53.142;6.430;2023-06-19T01:05:43;21.10;99.90
55436;DHT22;41307;53.142;6.430;2023-06-19T01:09:10;21.10;99.90
55436;DHT22;41307;53.142;6.430;2023-06-19T01:11:20;21.10;99.90
55436;DHT22;41307;53.142;6.430;2023-06-19T01:14:01;21.10;99.90
55436;DHT22;41307;53.142;6.430;2023-06-19T01:16:29;21.10;99.90
55436;DHT22;41307;53.142;6.430;2023-06-19T01:18:56;21.10;99.90
55436;DHT22;41307;53.142;6.430;2023-06-19T01:21:21;21.10;99.90
55436;DHT22;41307;53.142;6.430;2023-06-19T01:23:47;21.10;99.90
55436;DHT22;41307;53.142;6.430;2023-06-19T01:26:13;21.10;99.90
55436;DHT22;41307;53.142;6.430;2023-06-19T01:28:43;21.00;99.90
55436;DHT22;41307;53.142;6.430;2023-06-19T01:31:15;21.00;99.90
55436;DHT22;41307;53.142;6.430;2023-06-19T01:33:43;21.00;99.90
55436;DHT22;41307;53.142;6.430;2023-06-19T01:36:11;21.00;99.90
55436;DHT22;41307;53.142;6.430;2023-06-19T01:38:37;21.00;99.90
55436;DHT22;41307;53.142;6.430;2023-06-19T01:41:05;21.00;99.90
55436;DHT22;41307;53.142;6.430;2023-06-19T01:43:32;21.00;99.90
55436;DHT22;41307;53.142;6.430;2023-06-19T01:45:59;21.00;99.90
55436;DHT22;41307;53.142;6.430;2023-06-19T01:48:26;21.00;99.90
55436;DHT22;41307;53.142;6.430;2023-06-19T01:50:52;21.10;99.90
55436;DHT22;41307;53.142;6.430;2023-06-19T01:53:18;21.00;99.90
55436;DHT22;41307;53.142;6.430;2023-06-19T01:55:43;21.10;99.90
55436;DHT22;41307;53.142;6.430;2023-06-19T01:58:09;21.00;99.90
55436;DHT22;41307;53.142;6.430;2023-06-19T02:00:35;21.10;99.90
55436;DHT22;41307;53.142;6.430;2023-06-19T02:03:01;21.10;99.90
55436;DHT22;41307;53.142;6.430;2023-06-19T02:05:27;21.10;99.90
55436;DHT22;41307;53.142;6.430;2023-06-19T02:07:53;21.10;99.90
55436;DHT22;41307;53.142;6.430;2023-06-19T02:10:18;21.10;99.90
55436;DHT22;41307;53.142;6.430;2023-06-19T02:12:44;21.10;99.90
55436;DHT22;41307;53.142;6.430;2023-06-19T02:15:10;21.10;99.90
55436;DHT22;41307;53.142;6.430;2023-06-19T02:17:36;21.10;99.90
55436;DHT22;41307;53.142;6.430;2023-06-19T02:20:01;21.10;99.90
55436;DHT22;41307;53.142;6.430;2023-06-19T02:22:27;21.10;99.90
55436;DHT22;41307;53.142;6.430;2023-06-19T02:24:53;21.10;99.90
55436;DHT22;41307;53.142;6.430;2023-06-19T02:27:19;21.00;99.90
55436;DHT22;41307;53.142;6.430;2023-06-19T02:29:44;21.00;99.90
55436;DHT22;41307;53.142;6.430;2023-06-19T02:32:10;21.00;99.90
55436;DHT22;41307;53.142;6.430;2023-06-19T02:34:36;21.00;99.90
55436;DHT22;41307;53.142;6.430;2023-06-19T02:37:02;21.00;99.90
55436;DHT22;41307;53.142;6.430;2023-06-19T02:39:28;21.00;99.90
55436;DHT22;41307;53.142;6.430;2023-06-19T02:41:54;21.00;99.90
55436;DHT22;41307;53.142;6.430;2023-06-19T02:44:20;21.00;99.90
55436;DHT22;41307;53.142;6.430;2023-06-19T02:46:45;21.00;99.90
55436;DHT22;41307;53.142;6.430;2023-06-19T02:49:11;21.00;99.90
55436;DHT22;41307;53.142;6.430;2023-06-19T02:51:37;21.00;99.90
55436;DHT22;41307;53.142;6.430;2023-06-19T02:54:02;21.00;99.90
55436;DHT22;41307;53.142;6.430;2023-06-19T02:56:28;21.00;99.90
55436;DHT22;41307;53.142;6.430;2023-06-19T02:58:54;20.90;99.90
55436;DHT22;41307;53.142;6.430;2023-06-19T03:01:20;20.90;99.90
55436;DHT22;41307;53.142;6.430;2023-06-19T03:03:45;20.90;99.90
55436;DHT22;41307;53.142;6.430;2023-06-19T03:06:12;20.90;99.90
55436;DHT22;41307;53.142;6.430;2023-06-19T03:08:39;20.90;99.90
55436;DHT22;41307;53.142;6.430;2023-06-19T03:11:05;20.90;99.90
55436;DHT22;41307;53.142;6.430;2023-06-19T03:13:54;20.90;99.90
55436;DHT22;41307;53.142;6.430;2023-06-19T03:16:20;20.80;99.90
55436;DHT22;41307;53.142;6.430;2023-06-19T03:18:46;20.80;99.90
55436;DHT22;41307;53.142;6.430;2023-06-19T03:21:16;20.90;99.90
55436;DHT22;41307;53.142;6.430;2023-06-19T03:23:41;20.90;99.90
55436;DHT22;41307;53.142;6.430;2023-06-19T03:26:08;20.90;99.90
55436;DHT22;41307;53.142;6.430;2023-06-19T03:28:34;20.90;99.90
55436;DHT22;41307;53.142;6.430;2023-06-19T03:31:00;20.90;99.90
55436;DHT22;41307;53.142;6.430;2023-06-19T03:33:26;20.90;99.90
55436;DHT22;41307;53.142;6.430;2023-06-19T03:35:52;20.90;99.90
55436;DHT22;41307;53.142;6.430;2023-06-19T03:38:17;20.90;99.90
55436;DHT22;41307;53.142;6.430;2023-06-19T03:40:43;20.90;99.90
55436;DHT22;41307;53.142;6.430;2023-06-19T03:43:09;20.90;99.90
55436;DHT22;41307;53.142;6.430;2023-06-19T03:45:36;21.00;99.90
55436;DHT22;41307;53.142;6.430;2023-06-19T03:48:02;21.00;99.90
55436;DHT22;41307;53.142;6.430;2023-06-19T03:50:28;21.00;99.90
55436;DHT22;41307;53.142;6.430;2023-06-19T03:52:54;21.00;99.90
55436;DHT22;41307;53.142;6.430;2023-06-19T03:55:19;21.00;99.90
55436;DHT22;41307;53.142;6.430;2023-06-19T03:57:45;21.00;99.90
55436;DHT22;41307;53.142;6.430;2023-06-19T04:00:11;21.00;99.90
55436;DHT22;41307;53.142;6.430;2023-06-19T04:02:41;21.00;99.90
55436;DHT22;41307;53.142;6.430;2023-06-19T04:05:07;20.90;99.90
55436;DHT22;41307;53.142;6.430;2023-06-19T04:07:33;21.00;99.90
55436;DHT22;41307;53.142;6.430;2023-06-19T04:09:59;21.00;99.90
55436;DHT22;41307;53.142;6.430;2023-06-19T04:12:25;21.00;99.90
55436;DHT22;41307;53.142;6.430;2023-06-19T04:14:50;21.00;99.90
55436;DHT22;41307;53.142;6.430;2023-06-19T04:17:16;21.00;99.90
55436;DHT22;41307;53.142;6.430;2023-06-19T04:19:42;21.00;99.90
55436;DHT22;41307;53.142;6.430;2023-06-19T04:22:08;21.00;99.90
55436;DHT22;41307;53.142;6.430;2023-06-19T04:24:35;21.00;99.90
55436;DHT22;41307;53.142;6.430;2023-06-19T04:27:00;21.10;99.90
55436;DHT22;41307;53.142;6.430;2023-06-19T04:29:26;21.20;99.90
55436;DHT22;41307;53.142;6.430;2023-06-19T04:31:52;21.30;99.90
55436;DHT22;41307;53.142;6.430;2023-06-19T04:34:18;21.40;99.90
55436;DHT22;41307;53.142;6.430;2023-06-19T04:36:49;21.50;99.90
55436;DHT22;41307;53.142;6.430;2023-06-19T04:39:15;21.60;99.90
55436;DHT22;41307;53.142;6.430;2023-06-19T04:41:43;21.70;99.90
55436;DHT22;41307;53.142;6.430;2023-06-19T04:44:10;22.00;99.90
55436;DHT22;41307;53.142;6.430;2023-06-19T04:46:37;22.30;99.90
55436;DHT22;41307;53.142;6.430;2023-06-19T04:49:04;22.40;99.90
55436;DHT22;41307;53.142;6.430;2023-06-19T04:51:33;22.70;99.90
55436;DHT22;41307;53.142;6.430;2023-06-19T04:54:02;22.50;99.90
55436;DHT22;41307;53.142;6.430;2023-06-19T04:56:28;22.80;99.90
55436;DHT22;41307;53.142;6.430;2023-06-19T04:58:55;22.90;99.90
55436;DHT22;41307;53.142;6.430;2023-06-19T05:01:26;22.80;99.90
55436;DHT22;41307;53.142;6.430;2023-06-19T05:03:54;22.80;99.90
55436;DHT22;41307;53.142;6.430;2023-06-19T05:06:24;22.90;99.90
55436;DHT22;41307;53.142;6.430;2023-06-19T05:08:50;22.70;99.90
55436;DHT22;41307;53.142;6.430;2023-06-19T05:11:15;22.70;99.90
55436;DHT22;41307;53.142;6.430;2023-06-19T05:13:41;22.90;99.90
55436;DHT22;41307;53.142;6.430;2023-06-19T05:16:07;23.20;99.90
55436;DHT22;41307;53.142;6.430;2023-06-19T05:18:33;23.50;99.90
55436;DHT22;41307;53.142;6.430;2023-06-19T05:20:58;23.60;99.90
55436;DHT22;41307;53.142;6.430;2023-06-19T05:23:24;24.10;99.90
55436;DHT22;41307;53.142;6.430;2023-06-19T05:25:50;24.30;99.90
55436;DHT22;41307;53.142;6.430;2023-06-19T05:28:16;24.40;99.90
55436;DHT22;41307;53.142;6.430;2023-06-19T05:30:41;24.60;99.90
55436;DHT22;41307;53.142;6.430;2023-06-19T05:33:07;24.80;99.90
55436;DHT22;41307;53.142;6.430;2023-06-19T05:35:33;25.20;99.90
55436;DHT22;41307;53.142;6.430;2023-06-19T05:37:59;25.10;99.90
55436;DHT22;41307;53.142;6.430;2023-06-19T05:40:24;24.40;99.90
55436;DHT22;41307;53.142;6.430;2023-06-19T05:42:50;24.10;99.90
55436;DHT22;41307;53.142;6.430;2023-06-19T05:45:16;23.80;99.90
55436;DHT22;41307;53.142;6.430;2023-06-19T05:47:42;23.30;99.90
55436;DHT22;41307;53.142;6.430;2023-06-19T05:50:08;22.90;99.90
55436;DHT22;41307;53.142;6.430;2023-06-19T05:52:34;22.70;99.90
55436;DHT22;41307;53.142;6.430;2023-06-19T05:55:00;22.30;99.90
55436;DHT22;41307;53.142;6.430;2023-06-19T05:57:26;22.10;99.90
55436;DHT22;41307;53.142;6.430;2023-06-19T05:59:51;22.00;99.90
55436;DHT22;41307;53.142;6.430;2023-06-19T06:02:19;21.80;99.90
55436;DHT22;41307;53.142;6.430;2023-06-19T06:04:45;21.60;99.90
55436;DHT22;41307;53.142;6.430;2023-06-19T06:07:11;21.60;99.90
55436;DHT22;41307;53.142;6.430;2023-06-19T06:09:37;21.60;99.90
55436;DHT22;41307;53.142;6.430;2023-06-19T06:12:03;21.50;99.90
55436;DHT22;41307;53.142;6.430;2023-06-19T06:14:29;21.50;99.90
55436;DHT22;41307;53.142;6.430;2023-06-19T06:16:54;21.50;99.90
55436;DHT22;41307;53.142;6.430;2023-06-19T06:19:20;21.50;99.90
55436;DHT22;41307;53.142;6.430;2023-06-19T06:21:50;21.50;99.90
55436;DHT22;41307;53.142;6.430;2023-06-19T06:24:16;21.50;99.90
55436;DHT22;41307;53.142;6.430;2023-06-19T06:26:42;21.50;99.90
55436;DHT22;41307;53.142;6.430;2023-06-19T06:29:08;21.60;99.90
55436;DHT22;41307;53.142;6.430;2023-06-19T06:31:34;21.60;99.90
55436;DHT22;41307;53.142;6.430;2023-06-19T06:34:00;21.70;99.90
55436;DHT22;41307;53.142;6.430;2023-06-19T06:36:26;21.70;99.90
55436;DHT22;41307;53.142;6.430;2023-06-19T06:38:51;21.60;99.90
55436;DHT22;41307;53.142;6.430;2023-06-19T06:41:17;21.60;99.90
55436;DHT22;41307;53.142;6.430;2023-06-19T06:43:43;21.60;99.90
55436;DHT22;41307;53.142;6.430;2023-06-19T06:46:09;21.50;99.90
55436;DHT22;41307;53.142;6.430;2023-06-19T06:48:36;21.50;99.90
55436;DHT22;41307;53.142;6.430;2023-06-19T06:51:02;21.50;99.90
55436;DHT22;41307;53.142;6.430;2023-06-19T06:53:28;21.50;99.90
55436;DHT22;41307;53.142;6.430;2023-06-19T06:55:55;21.40;99.90
55436;DHT22;41307;53.142;6.430;2023-06-19T06:58:20;21.30;99.90
55436;DHT22;41307;53.142;6.430;2023-06-19T07:00:46;21.20;99.90
55436;DHT22;41307;53.142;6.430;2023-06-19T07:03:13;21.20;99.90
55436;DHT22;41307;53.142;6.430;2023-06-19T07:05:38;21.00;99.90
55436;DHT22;41307;53.142;6.430;2023-06-19T07:08:04;21.00;99.90
55436;DHT22;41307;53.142;6.430;2023-06-19T07:10:30;21.00;99.90
55436;DHT22;41307;53.142;6.430;2023-06-19T07:12:56;20.90;99.90
55436;DHT22;41307;53.142;6.430;2023-06-19T07:15:22;20.90;99.90
55436;DHT22;41307;53.142;6.430;2023-06-19T07:17:48;20.90;99.90
55436;DHT22;41307;53.142;6.430;2023-06-19T07:20:14;20.80;99.90
55436;DHT22;41307;53.142;6.430;2023-06-19T07:22:41;20.80;99.90
55436;DHT22;41307;53.142;6.430;2023-06-19T07:25:07;20.80;99.90
55436;DHT22;41307;53.142;6.430;2023-06-19T07:27:33;20.80;99.90
55436;DHT22;41307;53.142;6.430;2023-06-19T07:29:59;20.80;99.90
55436;DHT22;41307;53.142;6.430;2023-06-19T07:32:25;20.80;99.90
55436;DHT22;41307;53.142;6.430;2023-06-19T07:34:51;20.80;99.90
55436;DHT22;41307;53.142;6.430;2023-06-19T07:37:16;20.80;99.90
55436;DHT22;41307;53.142;6.430;2023-06-19T07:39:46;20.80;99.90
55436;DHT22;41307;53.142;6.430;2023-06-19T07:42:14;20.90;99.90
55436;DHT22;41307;53.142;6.430;2023-06-19T07:44:40;21.10;99.90
55436;DHT22;41307;53.142;6.430;2023-06-19T07:47:06;21.20;99.90
55436;DHT22;41307;53.142;6.430;2023-06-19T07:49:32;21.20;99.90
55436;DHT22;41307;53.142;6.430;2023-06-19T07:51:58;21.30;99.90
55436;DHT22;41307;53.142;6.430;2023-06-19T07:54:24;21.40;99.90
55436;DHT22;41307;53.142;6.430;2023-06-19T07:56:50;21.50;99.90
55436;DHT22;41307;53.142;6.430;2023-06-19T07:59:15;21.70;99.90
55436;DHT22;41307;53.142;6.430;2023-06-19T08:01:42;21.90;99.90
55436;DHT22;41307;53.142;6.430;2023-06-19T08:04:08;22.00;99.90
55436;DHT22;41307;53.142;6.430;2023-06-19T08:06:34;22.00;99.90
55436;DHT22;41307;53.142;6.430;2023-06-19T08:08:59;22.00;99.90
55436;DHT22;41307;53.142;6.430;2023-06-19T08:11:26;21.90;99.90
55436;DHT22;41307;53.142;6.430;2023-06-19T08:13:52;21.70;99.90
55436;DHT22;41307;53.142;6.430;2023-06-19T08:16:17;21.50;99.90
55436;DHT22;41307;53.142;6.430;2023-06-19T08:18:44;21.50;99.90
55436;DHT22;41307;53.142;6.430;2023-06-19T08:21:10;21.60;99.90
55436;DHT22;41307;53.142;6.430;2023-06-19T08:23:36;21.80;99.90
55436;DHT22;41307;53.142;6.430;2023-06-19T08:26:03;21.90;99.90
55436;DHT22;41307;53.142;6.430;2023-06-19T08:28:31;21.80;99.90
55436;DHT22;41307;53.142;6.430;2023-06-19T08:30:57;21.80;99.90
55436;DHT22;41307;53.142;6.430;2023-06-19T08:33:23;21.70;99.90
55436;DHT22;41307;53.142;6.430;2023-06-19T08:35:49;21.60;99.90
55436;DHT22;41307;53.142;6.430;2023-06-19T08:38:15;21.50;99.90
55436;DHT22;41307;53.142;6.430;2023-06-19T08:40:44;21.30;99.90
55436;DHT22;41307;53.142;6.430;2023-06-19T08:43:09;21.30;99.90
55436;DHT22;41307;53.142;6.430;2023-06-19T08:45:35;21.40;99.90
55436;DHT22;41307;53.142;6.430;2023-06-19T08:48:02;21.40;99.90
55436;DHT22;41307;53.142;6.430;2023-06-19T08:50:32;21.40;99.90
55436;DHT22;41307;53.142;6.430;2023-06-19T08:52:58;21.40;99.90
55436;DHT22;41307;53.142;6.430;2023-06-19T08:55:24;21.40;99.90
55436;DHT22;41307;53.142;6.430;2023-06-19T08:57:51;21.50;99.90
55436;DHT22;41307;53.142;6.430;2023-06-19T09:00:29;21.40;99.90
55436;DHT22;41307;53.142;6.430;2023-06-19T09:03:02;21.40;99.90
55436;DHT22;41307;53.142;6.430;2023-06-19T09:05:29;21.50;99.90
55436;DHT22;41307;53.142;6.430;2023-06-19T09:07:59;21.60;99.90
55436;DHT22;41307;53.142;6.430;2023-06-19T09:10:28;21.60;99.90
55436;DHT22;41307;53.142;6.430;2023-06-19T09:13:01;21.60;99.90
55436;DHT22;41307;53.142;6.430;2023-06-19T09:15:32;21.60;99.90
55436;DHT22;41307;53.142;6.430;2023-06-19T09:18:09;21.70;99.90
55436;DHT22;41307;53.142;6.430;2023-06-19T09:20:38;21.70;99.90
55436;DHT22;41307;53.142;6.430;2023-06-19T09:23:10;21.90;99.90
55436;DHT22;41307;53.142;6.430;2023-06-19T09:25:56;22.00;99.90
55436;DHT22;41307;53.142;6.430;2023-06-19T09:28:24;22.00;99.90
55436;DHT22;41307;53.142;6.430;2023-06-19T09:31:03;22.10;99.90
55436;DHT22;41307;53.142;6.430;2023-06-19T09:33:32;22.10;99.90
55436;DHT22;41307;53.142;6.430;2023-06-19T09:36:00;22.20;99.90
55436;DHT22;41307;53.142;6.430;2023-06-19T09:38:29;22.10;99.90
55436;DHT22;41307;53.142;6.430;2023-06-19T09:40:56;22.10;99.90
55436;DHT22;41307;53.142;6.430;2023-06-19T09:43:25;22.00;99.90
55436;DHT22;41307;53.142;6.430;2023-06-19T09:45:54;22.00;99.90
55436;DHT22;41307;53.142;6.430;2023-06-19T09:48:26;22.00;99.90
55436;DHT22;41307;53.142;6.430;2023-06-19T09:50:58;21.90;99.90
55436;DHT22;41307;53.142;6.430;2023-06-19T09:53:25;21.90;99.90
55436;DHT22;41307;53.142;6.430;2023-06-19T09:55:51;22.00;99.90
55436;DHT22;41307;53.142;6.430;2023-06-19T09:58:20;22.00;99.90
55436;DHT22;41307;53.142;6.430;2023-06-19T10:00:47;22.00;99.90
55436;DHT22;41307;53.142;6.430;2023-06-19T10:03:16;21.90;99.90
55436;DHT22;41307;53.142;6.430;2023-06-19T10:05:42;21.70;99.90
55436;DHT22;41307;53.142;6.430;2023-06-19T10:08:09;21.60;99.90
55436;DHT22;41307;53.142;6.430;2023-06-19T10:10:35;21.50;99.90
55436;DHT22;41307;53.142;6.430;2023-06-19T10:13:13;21.50;99.90
55436;DHT22;41307;53.142;6.430;2023-06-19T10:15:43;21.40;99.90
55436;DHT22;41307;53.142;6.430;2023-06-19T10:18:15;21.40;99.90
55436;DHT22;41307;53.142;6.430;2023-06-19T10:20:44;21.40;99.90
55436;DHT22;41307;53.142;6.430;2023-06-19T10:23:18;21.30;99.90
55436;DHT22;41307;53.142;6.430;2023-06-19T10:25:46;21.20;99.90
55436;DHT22;41307;53.142;6.430;2023-06-19T10:28:19;21.40;99.90
55436;DHT22;41307;53.142;6.430;2023-06-19T10:30:52;21.50;99.90
55436;DHT22;41307;53.142;6.430;2023-06-19T10:33:20;21.80;99.90
55436;DHT22;41307;53.142;6.430;2023-06-19T10:35:46;22.00;99.90
55436;DHT22;41307;53.142;6.430;2023-06-19T10:38:15;22.20;99.90
55436;DHT22;41307;53.142;6.430;2023-06-19T10:40:45;22.20;99.90
55436;DHT22;41307;53.142;6.430;2023-06-19T10:43:11;22.20;99.90
55436;DHT22;41307;53.142;6.430;2023-06-19T10:45:37;22.20;99.90
55436;DHT22;41307;53.142;6.430;2023-06-19T10:48:04;22.20;99.90
55436;DHT22;41307;53.142;6.430;2023-06-19T10:50:34;22.20;99.90
55436;DHT22;41307;53.142;6.430;2023-06-19T10:53:01;22.40;99.90
55436;DHT22;41307;53.142;6.430;2023-06-19T10:55:27;22.60;99.90
55436;DHT22;41307;53.142;6.430;2023-06-19T10:57:52;22.60;99.90
55436;DHT22;41307;53.142;6.430;2023-06-19T11:00:25;22.60;99.90
55436;DHT22;41307;53.142;6.430;2023-06-19T11:02:51;22.60;99.90
55436;DHT22;41307;53.142;6.430;2023-06-19T11:05:20;22.70;99.90
55436;DHT22;41307;53.142;6.430;2023-06-19T11:07:51;23.00;99.90
55436;DHT22;41307;53.142;6.430;2023-06-19T11:10:27;23.40;99.90
55436;DHT22;41307;53.142;6.430;2023-06-19T11:12:58;23.50;99.90
55436;DHT22;41307;53.142;6.430;2023-06-19T11:15:34;23.70;99.90
55436;DHT22;41307;53.142;6.430;2023-06-19T11:18:01;23.80;99.90
55436;DHT22;41307;53.142;6.430;2023-06-19T11:20:28;23.70;99.90
55436;DHT22;41307;53.142;6.430;2023-06-19T11:22:56;23.70;99.90
55436;DHT22;41307;53.142;6.430;2023-06-19T11:25:22;23.80;99.90
55436;DHT22;41307;53.142;6.430;2023-06-19T11:27:48;24.00;99.90
55436;DHT22;41307;53.142;6.430;2023-06-19T11:30:18;24.30;99.90
55436;DHT22;41307;53.142;6.430;2023-06-19T11:32:49;24.30;99.90
55436;DHT22;41307;53.142;6.430;2023-06-19T11:35:17;24.30;99.90
55436;DHT22;41307;53.142;6.430;2023-06-19T11:37:43;24.30;99.90
55436;DHT22;41307;53.142;6.430;2023-06-19T11:40:09;24.30;99.90
55436;DHT22;41307;53.142;6.430;2023-06-19T11:42:53;24.30;99.90
55436;DHT22;41307;53.142;6.430;2023-06-19T11:45:21;24.30;99.90
55436;DHT22;41307;53.142;6.430;2023-06-19T11:47:48;24.40;99.90
55436;DHT22;41307;53.142;6.430;2023-06-19T11:50:15;24.40;99.90
55436;DHT22;41307;53.142;6.430;2023-06-19T11:52:43;24.70;99.90
55436;DHT22;41307;53.142;6.430;2023-06-19T11:55:10;24.80;99.90
55436;DHT22;41307;53.142;6.430;2023-06-19T11:57:36;24.80;99.90
55436;DHT22;41307;53.142;6.430;2023-06-19T12:00:02;24.90;99.90
55436;DHT22;41307;53.142;6.430;2023-06-19T12:02:33;25.00;99.90
55436;DHT22;41307;53.142;6.430;2023-06-19T12:04:58;25.00;99.90
55436;DHT22;41307;53.142;6.430;2023-06-19T12:07:25;25.00;99.90
55436;DHT22;41307;53.142;6.430;2023-06-19T12:09:51;24.80;99.90
55436;DHT22;41307;53.142;6.430;2023-06-19T12:12:17;25.10;99.90
55436;DHT22;41307;53.142;6.430;2023-06-19T12:14:43;25.10;99.90
55436;DHT22;41307;53.142;6.430;2023-06-19T12:17:10;25.10;99.90
55436;DHT22;41307;53.142;6.430;2023-06-19T12:19:36;25.00;99.90
55436;DHT22;41307;53.142;6.430;2023-06-19T12:22:03;24.90;99.90
55436;DHT22;41307;53.142;6.430;2023-06-19T12:24:29;24.90;99.90
55436;DHT22;41307;53.142;6.430;2023-06-19T12:26:54;25.00;99.90
55436;DHT22;41307;53.142;6.430;2023-06-19T12:29:20;25.10;99.90
55436;DHT22;41307;53.142;6.430;2023-06-19T12:31:46;25.10;99.90
55436;DHT22;41307;53.142;6.430;2023-06-19T12:34:12;25.00;99.90
55436;DHT22;41307;53.142;6.430;2023-06-19T12:36:37;25.10;99.90
55436;DHT22;41307;53.142;6.430;2023-06-19T12:39:03;25.00;99.90
55436;DHT22;41307;53.142;6.430;2023-06-19T12:41:31;25.10;99.90
55436;DHT22;41307;53.142;6.430;2023-06-19T12:43:57;25.20;99.90
55436;DHT22;41307;53.142;6.430;2023-06-19T12:46:23;25.10;99.90
55436;DHT22;41307;53.142;6.430;2023-06-19T12:48:48;25.10;99.90
55436;DHT22;41307;53.142;6.430;2023-06-19T12:51:17;25.30;99.90
55436;DHT22;41307;53.142;6.430;2023-06-19T12:53:44;25.50;99.90
55436;DHT22;41307;53.142;6.430;2023-06-19T12:56:09;25.50;99.90
55436;DHT22;41307;53.142;6.430;2023-06-19T12:58:35;25.60;99.90
55436;DHT22;41307;53.142;6.430;2023-06-19T13:01:01;25.80;99.90
55436;DHT22;41307;53.142;6.430;2023-06-19T13:03:26;26.00;99.90
55436;DHT22;41307;53.142;6.430;2023-06-19T13:05:52;26.10;99.90
55436;DHT22;41307;53.142;6.430;2023-06-19T13:08:18;26.00;99.90
55436;DHT22;41307;53.142;6.430;2023-06-19T13:10:43;25.70;99.90
55436;DHT22;41307;53.142;6.430;2023-06-19T13:13:09;25.90;99.90
55436;DHT22;41307;53.142;6.430;2023-06-19T13:15:38;25.90;99.90
55436;DHT22;41307;53.142;6.430;2023-06-19T13:18:04;25.90;99.90
55436;DHT22;41307;53.142;6.430;2023-06-19T13:20:30;25.90;99.90
55436;DHT22;41307;53.142;6.430;2023-06-19T13:22:55;25.80;99.90
55436;DHT22;41307;53.142;6.430;2023-06-19T13:25:21;25.70;99.90
55436;DHT22;41307;53.142;6.430;2023-06-19T13:27:47;25.80;99.90
55436;DHT22;41307;53.142;6.430;2023-06-19T13:30:14;25.70;99.90
55436;DHT22;41307;53.142;6.430;2023-06-19T13:32:39;25.70;99.90
55436;DHT22;41307;53.142;6.430;2023-06-19T13:35:06;25.90;99.90
55436;DHT22;41307;53.142;6.430;2023-06-19T13:37:36;26.00;99.90
55436;DHT22;41307;53.142;6.430;2023-06-19T13:40:02;26.10;99.40
55436;DHT22;41307;53.142;6.430;2023-06-19T13:42:29;26.10;99.50
55436;DHT22;41307;53.142;6.430;2023-06-19T13:44:56;26.20;99.00
55436;DHT22;41307;53.142;6.430;2023-06-19T13:47:21;26.10;98.70
55436;DHT22;41307;53.142;6.430;2023-06-19T13:49:47;26.00;98.80
55436;DHT22;41307;53.142;6.430;2023-06-19T13:52:13;26.00;99.10
55436;DHT22;41307;53.142;6.430;2023-06-19T13:54:38;26.10;99.00
55436;DHT22;41307;53.142;6.430;2023-06-19T13:57:05;26.00;98.80
55436;DHT22;41307;53.142;6.430;2023-06-19T13:59:30;26.00;98.60
55436;DHT22;41307;53.142;6.430;2023-06-19T14:01:56;26.00;98.80
55436;DHT22;41307;53.142;6.430;2023-06-19T14:04:22;26.10;98.10
55436;DHT22;41307;53.142;6.430;2023-06-19T14:06:47;26.00;97.60
55436;DHT22;41307;53.142;6.430;2023-06-19T14:09:13;26.00;97.70
55436;DHT22;41307;53.142;6.430;2023-06-19T14:11:39;26.00;97.50
55436;DHT22;41307;53.142;6.430;2023-06-19T14:14:05;25.90;97.10
55436;DHT22;41307;53.142;6.430;2023-06-19T14:16:30;25.90;97.50
55436;DHT22;41307;53.142;6.430;2023-06-19T14:18:56;25.90;97.10
55436;DHT22;41307;53.142;6.430;2023-06-19T14:21:22;25.90;97.00
55436;DHT22;41307;53.142;6.430;2023-06-19T14:23:49;25.80;96.80
55436;DHT22;41307;53.142;6.430;2023-06-19T14:26:14;25.90;97.00
55436;DHT22;41307;53.142;6.430;2023-06-19T14:28:40;25.90;96.90
55436;DHT22;41307;53.142;6.430;2023-06-19T14:31:06;25.90;96.60
55436;DHT22;41307;53.142;6.430;2023-06-19T14:33:32;25.90;96.60
55436;DHT22;41307;53.142;6.430;2023-06-19T14:36:00;25.90;96.70
55436;DHT22;41307;53.142;6.430;2023-06-19T14:38:27;25.80;96.50
55436;DHT22;41307;53.142;6.430;2023-06-19T14:40:57;25.80;96.50
55436;DHT22;41307;53.142;6.430;2023-06-19T14:43:24;25.70;96.30
55436;DHT22;41307;53.142;6.430;2023-06-19T14:45:50;25.70;96.20
55436;DHT22;41307;53.142;6.430;2023-06-19T14:48:15;25.70;96.00
55436;DHT22;41307;53.142;6.430;2023-06-19T14:50:42;25.70;95.90
55436;DHT22;41307;53.142;6.430;2023-06-19T14:53:08;25.70;95.90
55436;DHT22;41307;53.142;6.430;2023-06-19T14:55:34;25.70;96.00
55436;DHT22;41307;53.142;6.430;2023-06-19T14:57:59;25.70;95.70
55436;DHT22;41307;53.142;6.430;2023-06-19T15:00:25;25.70;95.50
55436;DHT22;41307;53.142;6.430;2023-06-19T15:02:51;25.60;95.10
55436;DHT22;41307;53.142;6.430;2023-06-19T15:05:17;25.60;95.20
55436;DHT22;41307;53.142;6.430;2023-06-19T15:07:43;25.60;95.30
55436;DHT22;41307;53.142;6.430;2023-06-19T15:10:09;25.60;95.30
55436;DHT22;41307;53.142;6.430;2023-06-19T15:12:36;25.60;95.30
55436;DHT22;41307;53.142;6.430;2023-06-19T15:15:02;25.40;95.00
55436;DHT22;41307;53.142;6.430;2023-06-19T15:17:28;25.30;94.90
55436;DHT22;41307;53.142;6.430;2023-06-19T15:19:53;25.30;94.80
55436;DHT22;41307;53.142;6.430;2023-06-19T15:22:19;25.20;93.60
55436;DHT22;41307;53.142;6.430;2023-06-19T15:24:45;25.20;94.00
55436;DHT22;41307;53.142;6.430;2023-06-19T15:27:10;25.20;93.70
55436;DHT22;41307;53.142;6.430;2023-06-19T15:29:37;25.10;93.70